OKC weather

Will Rogers World Airport
Oklahoma City, Oklahoma, United States

Public forecast

Using degrees Fahrenheit for public forecast. Weather courtesy of forecast.io.

METAR (pilot weather report)

Retrieved 2019/04/25 22:52 UTC (25 minutes ago):

KOKC 252252Z 36024G32KT 10SM SCT055 23/12 A2994 RMK AO2 PK WND 01032/2243 SLP132 T02330122

TAF (pilot weather forecast)

Retrieved 2019/04/25 18:22 UTC (5 hours ago):

TAF KOKC 251720Z 2518/2618 33011KT P6SM FEW250 FM252000 35018G28KT P6SM SCT250 FM260200 35007KT P6SM SCT150 SCT250 FM260900 VRB05KT P6SM SCT250